Latest News: Website changes Read more...
 CDIP buoy station 111 Anacapa Passage, CA was decommissioned May 14, 2019. If you relied on this data, we would like to hear from you.

LONG BEACH CHANNEL, CA - 215

GPS Time
Latitude
Degrees
Longitude
Degrees
Gap
 
Distance
NM
Speed
Knots
Direction
Degrees
May 27, 01:56 33.70049° -118.20064° 30 min 0.01 0.01
133°
May 27, 01:26 33.70055° -118.20072° 30 min 0.01 0.01
May 27, 00:56 33.70050° -118.20072° 30 min 0.01 0.00
90°
May 27, 00:26 33.70050° -118.20074° 30 min 0.01 0.01
246°
May 26, 23:56 33.70052° -118.20068° 30 min 0.01 0.01
270°
May 26, 23:26 33.70052° -118.20058° 30 min 0.01 0.01
287°
May 26, 22:56 33.70050° -118.20049° 30 min 0.01 0.01
295°
May 26, 22:26 33.70045° -118.20038° 30 min 0.02 0.01
317°
May 26, 21:56 33.70042° -118.20034° 30 min 0.02 0.00
270°
May 26, 21:26 33.70042° -118.20032° 30 min 0.02 0.00
315°
May 26, 20:56 33.70040° -118.20029° 30 min 0.02 0.00
225°
May 26, 20:26 33.70042° -118.20027° 30 min 0.02 0.00
May 26, 19:56 33.70040° -118.20027° 30 min 0.02 0.00
180°
May 26, 19:26 33.70041° -118.20027° 30 min 0.02 0.00
148°
May 26, 18:56 33.70044° -118.20029° 30 min 0.02 0.00
320°
May 26, 18:26 33.70042° -118.20027° 30 min 0.02 0.00
May 26, 17:56 33.70039° -118.20027° 30 min 0.02 0.00
180°
May 26, 17:26 33.70040° -118.20027° 30 min 0.02 0.00
180°
May 26, 16:56 33.70042° -118.20027° 30 min 0.02 0.00
140°
May 26, 16:26 33.70044° -118.20029° 30 min 0.02 0.00
140°
May 26, 15:56 33.70047° -118.20032° 30 min 0.02 0.00
148°
May 26, 15:26 33.70050° -118.20034° 30 min 0.02 0.00
59°
May 26, 14:56 33.70049° -118.20036° 30 min 0.02 0.00
328°
May 26, 14:26 33.70045° -118.20034° 30 min 0.02 0.00
110°
May 26, 13:56 33.70047° -118.20038° 30 min 0.02 0.00
107°
May 26, 13:26 33.70048° -118.20042° 30 min 0.01 0.02
99°
May 26, 12:56 33.70050° -118.20058° 30 min 0.01 0.01
26°
May 26, 12:26 33.70043° -118.20061° 30 min 0.01 0.00
290°
May 26, 11:56 33.70042° -118.20058° 30 min 0.01 0.00
315°
May 26, 11:26 33.70040° -118.20055° 30 min 0.01 0.00
180°
May 26, 10:56 33.70041° -118.20055° 30 min 0.01 0.01
292°
May 26, 10:26 33.70039° -118.20049° 30 min 0.01 0.01
347°
May 26, 09:56 33.70034° -118.20047° 30 min 0.01 0.01
332°
May 26, 09:26 33.70023° -118.20040° 30 min 0.01 0.00
290°
May 26, 08:56 33.70022° -118.20036° 30 min 0.02 0.00
287°
May 26, 08:26 33.70021° -118.20032° 30 min 0.02 0.00
301°
May 26, 07:56 33.70020° -118.20029° 30 min 0.02 0.00
220°
May 26, 07:26 33.70022° -118.20027° 30 min 0.02 0.00
180°
May 26, 06:56 33.70023° -118.20027° 30 min 0.02 0.00
May 26, 06:26 33.70020° -118.20027° 30 min 0.02 0.00
45°
May 26, 05:56 33.70018° -118.20029° 30 min 0.02 0.00
40°
May 26, 05:26 33.70015° -118.20032° 30 min 0.02 0.00
220°
May 26, 04:56 33.70018° -118.20029° 30 min 0.02 0.00
239°
May 26, 04:26 33.70019° -118.20027° 30 min 0.02 0.00
May 26, 03:56 33.70019° -118.20027° 30 min 0.02 0.01
226°
May 26, 03:26 33.70022° -118.20023° 30 min 0.02 0.00
180°
May 26, 02:56 33.70023° -118.20023° 30 min 0.02 0.01
180°
May 26, 02:26 33.70027° -118.20023° 30 min 0.02 0.01
169°
May 26, 01:56 33.70034° -118.20025° 30 min 0.02 0.01
167°
May 26, 01:26 33.70042° -118.20027° 30 min 0.02 0.00
180°
May 26, 00:56 33.70044° -118.20027° 30 min 0.02 0.01
132°
May 26, 00:26 33.70048° -118.20032° 30 min 0.02 0.00
135°
May 25, 23:56 33.70050° -118.20034° 30 min 0.02 0.00
151°
May 25, 23:26 33.70053° -118.20036° 30 min 0.02 0.00
146°
May 25, 22:56 33.70055° -118.20038° 30 min 0.02 0.00
121°
May 25, 22:26 33.70056° -118.20040° 30 min 0.02 0.00
May 25, 21:56 33.70056° -118.20040° 30 min 0.02 0.00
90°
May 25, 21:26 33.70056° -118.20042° 30 min 0.02 0.00
180°
May 25, 20:56 33.70057° -118.20042° 30 min 0.02 0.00
270°
May 25, 20:26 33.70057° -118.20040° 30 min 0.02 0.00
90°
May 25, 19:56 33.70057° -118.20042° 30 min 0.02 0.01
59°
May 25, 19:26 33.70055° -118.20047° 30 min 0.02 0.00
270°
May 25, 18:56 33.70055° -118.20045° 30 min 0.02 0.00
180°
May 25, 18:26 33.70056° -118.20045° 30 min 0.02 0.00
May 25, 17:56 33.70056° -118.20045° 30 min 0.02 0.01
298°
May 25, 17:26 33.70053° -118.20038° 30 min 0.02 0.00
May 25, 16:56 33.70053° -118.20038° 30 min 0.02 0.00
312°
May 25, 16:26 33.70052° -118.20036° 30 min 0.02 0.00
70°
May 25, 15:56 33.70051° -118.20040° 30 min 0.02 0.00
239°
May 25, 15:26 33.70052° -118.20038° 30 min 0.02 0.01
May 25, 14:56 33.70048° -118.20038° 30 min 0.02 0.00
90°
May 25, 14:26 33.70048° -118.20040° 30 min 0.02 0.00
May 25, 13:56 33.70045° -118.20040° 30 min 0.02 0.01
150°
May 25, 13:26 33.70052° -118.20045° 30 min 0.02 0.00
May 25, 12:56 33.70052° -118.20045° 30 min 0.02 0.00
59°
May 25, 12:26 33.70051° -118.20047° 30 min 0.01 0.01
163°
May 25, 11:56 33.70055° -118.20049° 30 min 0.02 0.01
51°
May 25, 11:26 33.70052° -118.20053° 30 min 0.01 0.01
333°
May 25, 10:56 33.70044° -118.20049° 30 min 0.01 0.02
355°
May 25, 10:26 33.70029° -118.20047° 30 min 0.01 0.01
195°
May 25, 09:56 33.70037° -118.20045° 30 min 0.01 0.01
306°
May 25, 09:26 33.70033° -118.20038° 30 min 0.01 0.00
250°
May 25, 08:56 33.70034° -118.20034° 30 min 0.02 0.00
320°
May 25, 08:26 33.70031° -118.20032° 30 min 0.02 0.00
180°
May 25, 07:56 33.70035° -118.20032° 30 min 0.02 0.00
287°
May 25, 07:26 33.70034° -118.20027° 30 min 0.02 0.00
180°
May 25, 06:56 33.70037° -118.20027° 30 min 0.02 0.01
May 25, 06:26 33.70029° -118.20027° 30 min 0.02 0.00
May 25, 05:56 33.70029° -118.20027° 30 min 0.02 0.00
May 25, 05:26 33.70028° -118.20027° 30 min 0.02 0.00
270°
May 25, 04:56 33.70028° -118.20023° 30 min 0.02 0.00
48°
May 25, 04:26 33.70027° -118.20025° 30 min 0.02 0.00
228°
May 25, 03:56 33.70028° -118.20023° 30 min 0.02 0.00
May 25, 03:26 33.70026° -118.20023° 30 min 0.02 0.00
180°
May 25, 02:56 33.70027° -118.20023° 30 min 0.02 0.00
23°
May 25, 02:26 33.70024° -118.20025° 1 h 0.02 0.00
May 25, 01:26 33.70022° -118.20025° 30 min 0.02 0.00
32°
May 25, 00:56 33.70019° -118.20027° 30 min 0.02 0.00
May 25, 00:26 33.70019° -118.20027° 30 min 0.02 0.00
180°
May 24, 23:56 33.70021° -118.20027° 30 min 0.02 0.01
198°
May 24, 23:26 33.70030° -118.20023° 30 min 0.02 0.01
169°
May 24, 22:56 33.70037° -118.20025° 30 min 0.02 0.00
May 24, 22:26 33.70037° -118.20025° 30 min 0.02 0.01
157°
May 24, 21:56 33.70041° -118.20027° 30 min 0.02 0.00
May 24, 21:26 33.70041° -118.20027° 30 min 0.02 0.02
142°
May 24, 20:56 33.70057° -118.20042° 30 min 0.02 0.02
101°
May 24, 20:26 33.70060° -118.20061° 30 min 0.02 0.02
72°
May 24, 19:56 33.70055° -118.20081° 30 min 0.01 0.01
59°
May 24, 19:26 33.70052° -118.20087° 30 min 0.02 0.00
225°
May 24, 18:56 33.70054° -118.20085° 30 min 0.02 0.00
68°
May 24, 18:26 33.70053° -118.20087° 30 min 0.02 0.01
35°
May 24, 17:56 33.70048° -118.20092° 30 min 0.02 0.01
27°
May 24, 17:26 33.70038° -118.20098° 30 min 0.02 0.01
10°
May 24, 16:56 33.70027° -118.20100° 30 min 0.02 0.00
180°
May 24, 16:26 33.70028° -118.20100° 30 min 0.02 0.01
351°
May 24, 15:56 33.70016° -118.20098° 30 min 0.02 0.00
40°
May 24, 15:26 33.70014° -118.20100° 30 min 0.02 0.01
297°
May 24, 14:56 33.70012° -118.20096° 30 min 0.02 0.00
301°
May 24, 14:26 33.70011° -118.20094° 30 min 0.02 0.02
141°
May 24, 13:56 33.70023° -118.20105° 30 min 0.02 0.03
193°
May 24, 13:26 33.70048° -118.20098° 30 min 0.02 0.00
270°
May 24, 12:56 33.70048° -118.20096° 30 min 0.02 0.01
217°
May 24, 12:26 33.70052° -118.20092° 30 min 0.02 0.00
48°
May 24, 11:56 33.70051° -118.20094° 30 min 0.02 0.00
90°
May 24, 11:26 33.70051° -118.20096° 30 min 0.02 0.00
59°
May 24, 10:56 33.70050° -118.20098° 30 min 0.02 0.00
May 24, 10:26 33.70049° -118.20098° 30 min 0.02 0.01
24°
May 24, 09:56 33.70044° -118.20100° 30 min 0.02 0.00
May 24, 09:26 33.70041° -118.20100° 30 min 0.02 0.00
180°
May 24, 08:56 33.70042° -118.20100° 30 min 0.02 0.00
180°
May 24, 08:26 33.70043° -118.20100° 30 min 0.02 0.01
20°
May 24, 07:56 33.70038° -118.20103° 30 min 0.02 0.00
180°
May 24, 07:26 33.70040° -118.20103° 30 min 0.02 0.00
320°
May 24, 06:56 33.70038° -118.20100° 30 min 0.02 0.00
59°
May 24, 06:26 33.70037° -118.20103° 30 min 0.02 0.00
180°
May 24, 05:56 33.70038° -118.20103° 30 min 0.02 0.01
May 24, 05:26 33.70034° -118.20103° 30 min 0.02 0.00
180°
May 24, 04:56 33.70035° -118.20103° 30 min 0.02 0.01
May 24, 04:26 33.70030° -118.20103° 30 min 0.02 0.01
May 24, 03:56 33.70025° -118.20103° 30 min 0.02 0.00
328°
May 24, 03:26 33.70022° -118.20100° 30 min 0.02 0.00
59°
May 24, 02:56 33.70021° -118.20103° 30 min 0.02 0.00
315°